SLCO/CIJ METAR and TAF weather

Enter ICAO airport designator
Station Type Date Time Source
SLCO METAR 2019/09/19 23:00 UTC NOAA

SLCO 192300Z 07004KT 9999 FEW027 33/23 Q1005


Station Type Date Time Source
SLCO Decoded METAR 2019/09/19 23:00 UTC NOAA

Cobija, Bolivia (SLCO) 11-02S 068-47W 260M
Sep 19, 2019 - 07:00 PM EDT / 2019.09.19 2300 UTC
Wind: from the ENE (070 degrees) at 5 MPH (4 KT):0
Visibility: greater than 7 mile(s):0
Sky conditions: mostly clear
Temperature: 91 F (33 C)
Heat index: 99.1 F (37.3 C):1
Dew Point: 73 F (23 C)
Relative Humidity: 55%
Pressure (altimeter): 29.68 in. Hg (1005 hPa)
ob: SLCO 192300Z 07004KT 9999 FEW027 33/23 Q1005
cycle: 23

Station Type Date Time Source
SLCO TAF 2019/09/20 06:58 UTC NOAA

TAF SLCO 200450Z 2006/2106 00000KT 9999 NSC TX37/2020Z TN21/2011Z
BECMG 2012/2014 30007KT 8000 SCT025

Example: see airport list